Time;durP1;ratioP1;P1;durP2;ratioP2;P2;SDS_P1;SDS_P2;PMS_P1;PMS_P2;Temp;Humidity;BMP_temperature;BMP_pressure;BME280_temperature;BME280_humidity;BME280_pressure;Samples;Min_cycle;Max_cycle;Signal;HPM_P1;HPM_P2
2023/07/11 00:02:53;;;;;;;3.92;2.63;;;;;;;21.27;87.20;99571.50;10371337;28;20048;-64
2023/07/11 00:07:54;;;;;;;4.20;2.90;;;;;;;21.27;87.18;99568.78;10370844;28;20038;-64
2023/07/11 00:12:55;;;;;;;6.18;3.55;;;;;;;21.05;87.17;99549.97;10369571;28;20049;-64
2023/07/11 00:17:56;;;;;;;7.60;2.88;;;;;;;21.15;86.78;99575.19;10370409;28;20394;-64
2023/07/11 00:22:56;;;;;;;6.72;3.15;;;;;;;21.19;86.67;99578.19;10369684;28;20409;-64
2023/07/11 00:27:58;;;;;;;6.07;3.17;;;;;;;21.10;86.80;99552.72;10369259;28;20042;-65
2023/07/11 00:32:58;;;;;;;6.68;3.42;;;;;;;21.11;86.43;99565.16;10368391;28;20077;-64
2023/07/11 00:37:59;;;;;;;6.05;3.15;;;;;;;21.10;86.89;99574.34;10369130;28;20081;-64
2023/07/11 00:43:01;;;;;;;5.82;3.30;;;;;;;21.06;86.62;99574.03;10367868;28;20049;-64
2023/07/11 00:48:01;;;;;;;6.93;2.97;;;;;;;21.01;87.22;99571.28;10368424;28;20053;-64
2023/07/11 00:53:02;;;;;;;5.35;3.50;;;;;;;20.95;87.07;99578.50;10369049;28;20050;-64
2023/07/11 00:58:04;;;;;;;8.20;3.40;;;;;;;20.96;87.09;99577.44;10368492;28;20041;-64
2023/07/11 01:03:05;;;;;;;5.78;3.22;;;;;;;20.94;87.22;99578.78;10368974;28;20489;-64
2023/07/11 01:08:07;;;;;;;4.68;3.03;;;;;;;20.72;87.04;99563.41;10368488;28;20046;-64
2023/07/11 01:13:09;;;;;;;4.68;3.30;;;;;;;20.73;87.11;99566.94;10368836;28;20102;-64
2023/07/11 01:18:10;;;;;;;6.03;3.40;;;;;;;20.52;87.09;99538.91;10368919;28;20512;-64
2023/07/11 01:23:11;;;;;;;6.25;2.80;;;;;;;20.70;87.04;99570.97;10368204;28;20076;-64
2023/07/11 01:28:13;;;;;;;5.78;3.28;;;;;;;20.79;87.24;99595.63;10368215;28;20077;-64
2023/07/11 01:33:13;;;;;;;4.13;2.90;;;;;;;20.87;87.20;99611.34;10368691;28;20096;-64
2023/07/11 01:38:14;;;;;;;6.07;3.30;;;;;;;20.89;87.43;99609.22;10368241;28;20088;-64
2023/07/11 01:43:17;;;;;;;8.38;3.60;;;;;;;20.87;87.43;99619.44;10367019;28;20042;-65
2023/07/11 01:48:17;;;;;;;7.18;2.95;;;;;;;20.78;87.57;99602.09;10366428;28;20045;-64
2023/07/11 01:53:18;;;;;;;6.80;2.95;;;;;;;19.99;87.43;99490.00;10366839;28;20409;-64
2023/07/11 01:58:19;;;;;;;6.82;3.08;;;;;;;20.77;87.29;99627.44;10366835;28;20042;-65
2023/07/11 02:03:20;;;;;;;6.47;3.22;;;;;;;20.81;87.32;99631.25;10367407;28;20049;-64
2023/07/11 02:08:20;;;;;;;3.60;2.85;;;;;;;20.79;87.37;99611.81;10366387;28;20087;-65
2023/07/11 02:13:21;;;;;;;5.40;3.10;;;;;;;20.82;87.62;99627.50;10366757;28;20049;-64
2023/07/11 02:18:22;;;;;;;6.22;3.00;;;;;;;20.80;87.49;99639.63;10366899;28;20044;-65
2023/07/11 02:23:23;;;;;;;4.95;3.13;;;;;;;20.83;87.31;99645.34;10365594;28;20046;-64
2023/07/11 02:28:24;;;;;;;6.93;3.33;;;;;;;20.91;86.92;99650.28;10366379;28;20083;-63
2023/07/11 02:33:24;;;;;;;6.18;3.03;;;;;;;20.96;86.52;99661.13;10366997;28;20066;-64
2023/07/11 02:38:25;;;;;;;4.30;2.97;;;;;;;20.81;86.17;99639.38;10364991;28;20034;-64
2023/07/11 02:43:26;;;;;;;7.82;3.05;;;;;;;21.01;86.24;99673.06;10366351;28;20049;-64
2023/07/11 02:48:27;;;;;;;8.20;3.15;;;;;;;20.49;86.33;99596.88;10365294;28;20485;-64
2023/07/11 02:53:27;;;;;;;7.68;3.20;;;;;;;20.51;86.25;99594.72;10365100;28;20050;-64
2023/07/11 02:58:28;;;;;;;4.07;2.75;;;;;;;21.02;86.26;99678.22;10367956;28;20038;-64
2023/07/11 03:03:29;;;;;;;4.07;2.85;;;;;;;20.61;85.89;99610.28;10372743;28;20479;-64
2023/07/11 03:08:31;;;;;;;20.92;4.30;;;;;;;20.97;86.40;99661.97;10372824;28;20139;-64
2023/07/11 03:13:32;;;;;;;5.30;3.08;;;;;;;21.06;86.42;99671.25;10371189;28;20046;-63
2023/07/11 03:18:33;;;;;;;7.97;2.92;;;;;;;21.06;85.39;99659.59;10371345;28;20038;-69
2023/07/11 03:23:34;;;;;;;4.78;3.08;;;;;;;21.39;85.12;99691.88;10366326;28;20042;-65
2023/07/11 03:28:34;;;;;;;5.65;2.88;;;;;;;21.82;83.60;99690.09;10365827;28;20042;-65
2023/07/11 03:33:35;;;;;;;5.30;2.95;;;;;;;22.05;82.19;99671.91;10365172;28;20069;-64
2023/07/11 03:38:36;;;;;;;6.70;3.10;;;;;;;22.31;81.76;99695.34;10364981;28;20417;-63
2023/07/11 03:43:36;;;;;;;8.20;2.95;;;;;;;22.38;81.75;99707.84;10364427;28;20128;-65
2023/07/11 03:48:37;;;;;;;5.43;2.95;;;;;;;22.11;81.27;99639.19;10364201;28;20111;-65
2023/07/11 03:53:38;;;;;;;5.80;2.97;;;;;;;22.50;80.84;99722.81;10364454;28;20041;-64
2023/07/11 03:58:39;;;;;;;8.73;2.92;;;;;;;22.30;81.11;99717.25;10364745;28;20046;-66
2023/07/11 04:03:39;;;;;;;6.85;3.40;;;;;;;22.11;80.93;99708.72;10370545;28;20044;-64
2023/07/11 04:08:40;;;;;;;7.82;2.78;;;;;;;21.97;81.54;99681.28;10370207;28;20077;-64
2023/07/11 04:13:41;;;;;;;6.22;2.83;;;;;;;22.18;80.96;99716.63;10366891;28;20145;-65
2023/07/11 04:18:41;;;;;;;7.15;3.05;;;;;;;22.28;80.06;99709.38;10367123;28;20063;-64
2023/07/11 04:23:43;;;;;;;7.38;2.90;;;;;;;22.67;78.92;99695.53;10365452;28;20044;-64
2023/07/11 04:28:44;;;;;;;5.40;3.00;;;;;;;23.72;75.84;99720.81;10368801;28;20081;-66
2023/07/11 04:33:45;;;;;;;6.32;2.70;;;;;;;23.95;75.14;99720.28;10359323;28;20145;-63
2023/07/11 04:38:46;;;;;;;8.75;2.85;;;;;;;23.87;74.70;99729.81;10365013;28;20115;-63
2023/07/11 04:43:46;;;;;;;4.82;2.88;;;;;;;23.90;74.26;99733.84;10361639;28;20103;-66
2023/07/11 04:48:47;;;;;;;6.07;2.80;;;;;;;23.59;74.56;99733.78;10365155;28;20110;-65
2023/07/11 04:53:48;;;;;;;4.10;2.63;;;;;;;23.36;74.75;99731.56;10368739;28;20050;-64
2023/07/11 04:58:56;;;;;;;10.27;2.63;;;;;;;23.21;75.67;99727.75;10368093;28;20486;-65
2023/07/11 05:03:57;;;;;;;4.25;2.60;;;;;;;23.14;75.21;99713.63;10368238;28;20524;-64
2023/07/11 05:08:57;;;;;;;7.88;2.75;;;;;;;23.28;74.49;99713.16;10368508;28;20121;-65
2023/07/11 05:13:58;;;;;;;7.25;2.88;;;;;;;23.32;74.56;99698.78;10368929;28;20041;-65
2023/07/11 05:18:59;;;;;;;4.57;2.35;;;;;;;23.55;74.90;99715.63;10367433;28;20042;-65
2023/07/11 05:24:03;;;;;;;22.52;2.90;;;;;;;24.42;72.39;99745.50;10366638;28;20038;-65
2023/07/11 05:29:05;;;;;;;4.18;2.42;;;;;;;24.42;71.19;99735.47;10368022;28;20042;-65
2023/07/11 05:34:06;;;;;;;4.30;2.50;;;;;;;24.77;69.54;99752.78;10368267;28;20038;-66
2023/07/11 05:39:10;;;;;;;5.95;2.35;;;;;;;24.98;69.78;99748.09;10367989;28;20128;-65
2023/07/11 05:44:13;;;;;;;5.95;2.28;;;;;;;25.06;69.06;99748.31;10367760;28;20134;-65
2023/07/11 05:49:14;;;;;;;5.53;2.30;;;;;;;25.05;68.86;99743.97;10367719;28;20046;-65
2023/07/11 05:54:15;;;;;;;5.32;2.50;;;;;;;25.08;68.64;99737.16;10366659;28;20133;-64
2023/07/11 05:59:18;;;;;;;9.68;2.17;;;;;;;25.24;68.08;99718.91;10367042;28;20037;-64
2023/07/11 06:04:19;;;;;;;5.25;2.70;;;;;;;25.57;66.68;99732.84;10367237;28;20042;-64
2023/07/11 06:09:20;;;;;;;7.47;2.33;;;;;;;26.00;65.04;99738.56;10366486;28;20042;-64
2023/07/11 06:14:22;;;;;;;3.60;2.28;;;;;;;26.77;62.63;99750.31;10366947;28;20052;-64
2023/07/11 06:19:23;;;;;;;6.20;2.40;;;;;;;27.28;61.18;99749.75;10366784;28;20034;-65
2023/07/11 06:24:24;;;;;;;4.47;2.40;;;;;;;26.73;60.35;99670.28;10366067;28;20269;-64
2023/07/11 06:29:27;;;;;;;3.92;2.20;;;;;;;27.10;61.46;99758.66;10366406;28;20053;-64
2023/07/11 06:34:28;;;;;;;5.97;2.30;;;;;;;26.90;60.07;99753.47;10365471;28;20622;-64
2023/07/11 06:39:29;;;;;;;5.20;2.00;;;;;;;26.94;59.91;99771.69;10365613;28;20179;-65
2023/07/11 06:44:30;;;;;;;5.07;2.42;;;;;;;26.85;58.88;99755.16;10366701;28;20042;-64
2023/07/11 06:49:31;;;;;;;5.40;2.20;;;;;;;26.43;57.94;99679.59;10366044;28;20095;-64
2023/07/11 06:54:32;;;;;;;4.45;2.38;;;;;;;26.59;58.38;99699.31;10365825;28;20067;-65
2023/07/11 06:59:32;;;;;;;7.85;2.28;;;;;;;26.83;58.68;99746.47;10363950;28;20493;-64
2023/07/11 07:04:33;;;;;;;6.85;2.17;;;;;;;26.85;58.26;99757.06;10365977;28;20394;-64
2023/07/11 07:09:34;;;;;;;5.18;2.00;;;;;;;26.71;57.11;99707.09;10365406;28;20038;-65
2023/07/11 07:14:35;;;;;;;4.93;1.90;;;;;;;26.94;57.39;99684.47;10365319;28;20041;-64
2023/07/11 07:19:35;;;;;;;10.68;2.38;;;;;;;27.40;57.55;99735.69;10365201;28;20046;-64
2023/07/11 07:24:36;;;;;;;10.02;2.42;;;;;;;27.31;57.11;99740.16;10365740;28;20472;-67
2023/07/11 07:29:37;;;;;;;5.35;1.85;;;;;;;27.34;56.01;99730.56;10365230;28;20144;-64
2023/07/11 07:34:38;;;;;;;2.63;1.70;;;;;;;27.38;55.05;99737.09;10364260;28;20076;-63
2023/07/11 07:39:39;;;;;;;4.05;1.70;;;;;;;27.34;54.62;99733.31;10364188;28;20069;-64
2023/07/11 07:44:40;;;;;;;4.00;1.90;;;;;;;27.14;53.64;99729.72;10365347;28;20034;-64
2023/07/11 07:49:40;;;;;;;6.43;1.90;;;;;;;26.84;53.58;99722.75;10372082;28;20046;-64
2023/07/11 07:54:41;;;;;;;3.95;1.70;;;;;;;26.37;53.02;99667.13;10370647;28;20504;-64
2023/07/11 07:59:42;;;;;;;2.38;1.70;;;;;;;26.68;53.35;99729.47;10370518;28;20049;-64
2023/07/11 08:04:42;;;;;;;2.83;1.90;;;;;;;26.71;54.37;99724.25;10370407;28;20198;-64
2023/07/11 08:09:43;;;;;;;3.47;1.80;;;;;;;26.91;53.64;99711.50;10370993;28;20041;-65
2023/07/11 08:14:44;;;;;;;3.70;1.70;;;;;;;27.42;53.13;99680.81;10369904;28;20549;-64
2023/07/11 08:19:44;;;;;;;3.55;1.80;;;;;;;28.02;50.33;99713.72;10369872;28;20527;-64
2023/07/11 08:24:45;;;;;;;4.47;1.60;;;;;;;28.46;49.48;99703.41;10370165;28;20042;-64
2023/07/11 08:29:46;;;;;;;3.65;1.50;;;;;;;27.93;47.74;99630.88;10369681;28;20053;-65
2023/07/11 08:34:47;;;;;;;2.70;1.80;;;;;;;28.49;46.71;99684.50;10370004;28;20141;-65
2023/07/11 08:39:48;;;;;;;2.38;1.48;;;;;;;28.25;47.11;99681.09;10369365;28;20481;-64
2023/07/11 08:44:58;;;;;;;6.63;1.67;;;;;;;27.48;46.32;99631.34;10369726;28;20120;-64
2023/07/11 08:50:07;;;;;;;4.22;1.80;;;;;;;27.40;45.71;99661.22;10370156;28;20042;-64
2023/07/11 08:55:17;;;;;;;3.20;1.80;;;;;;;27.63;45.65;99700.41;10369946;28;20042;-66
2023/07/11 09:00:19;;;;;;;4.47;1.60;;;;;;;28.08;45.76;99700.78;10368855;28;20084;-64
2023/07/11 09:05:35;;;;;;;3.75;1.80;;;;;;;28.00;44.76;99699.56;10369029;28;20042;-64
2023/07/11 09:10:43;;;;;;;3.85;2.08;;;;;;;27.91;44.86;99695.88;10368893;28;20509;-64
2023/07/11 09:15:54;;;;;;;5.47;2.40;;;;;;;27.91;45.38;99702.19;10368151;28;20038;-64
2023/07/11 09:21:05;;;;;;;5.53;1.80;;;;;;;27.88;47.24;99704.66;10368417;28;20439;-65
2023/07/11 09:26:16;;;;;;;3.00;1.63;;;;;;;27.87;47.17;99712.06;10368453;28;20033;-64
2023/07/11 09:31:19;;;;;;;5.07;1.70;;;;;;;27.81;45.67;99707.78;10368093;28;20061;-64
2023/07/11 09:36:24;;;;;;;3.75;1.75;;;;;;;27.58;44.91;99676.75;10367612;28;20505;-65
2023/07/11 09:41:33;;;;;;;6.47;1.80;;;;;;;27.69;44.97;99691.84;10368260;28;20508;-65
2023/07/11 09:46:33;;;;;;;4.05;1.88;;;;;;;27.67;45.68;99664.06;10368106;28;20038;-64
2023/07/11 09:51:42;;;;;;;5.65;1.95;;;;;;;28.16;46.29;99672.78;10367563;28;20049;-65
2023/07/11 09:56:46;;;;;;;4.32;1.63;;;;;;;27.85;44.47;99577.81;10366259;28;20072;-65
2023/07/11 10:01:58;;;;;;;12.52;2.05;;;;;;;28.65;43.08;99691.25;10367386;28;20102;-64
2023/07/11 10:07:01;;;;;;;7.20;1.80;;;;;;;28.44;43.68;99684.59;10366625;28;20033;-65
2023/07/11 10:12:04;;;;;;;3.05;2.25;;;;;;;28.51;43.32;99678.72;10366353;28;20046;-66
2023/07/11 10:17:26;;;;;;;6.05;1.90;;;;;;;28.82;43.44;99689.84;10365350;28;20041;-65
2023/07/11 10:22:30;;;;;;;2.90;1.90;;;;;;;28.78;39.41;99703.31;10361014;28;20086;-64
2023/07/11 10:27:35;;;;;;;8.20;2.05;;;;;;;28.92;40.46;99699.75;10365437;28;20046;-63
2023/07/11 10:32:42;;;;;;;4.07;1.80;;;;;;;29.02;40.76;99692.19;10349797;28;20054;-65
2023/07/11 10:37:56;;;;;;;7.38;2.25;;;;;;;28.49;39.98;99638.03;10360558;28;20471;-66
2023/07/11 10:43:11;;;;;;;4.25;1.80;;;;;;;28.92;39.98;99695.09;10350221;28;20109;-65
2023/07/11 10:48:25;;;;;;;5.45;2.20;;;;;;;29.01;41.40;99695.19;10360861;28;20438;-63
2023/07/11 10:53:34;;;;;;;3.55;1.88;;;;;;;28.93;40.85;99707.66;10365795;28;20129;-65
2023/07/11 10:58:35;;;;;;;3.85;2.00;;;;;;;28.44;42.71;99638.94;10365529;28;20231;-65
2023/07/11 11:03:45;;;;;;;4.13;1.88;;;;;;;28.91;40.62;99679.81;10358272;28;20452;-63
2023/07/11 11:09:25;;;;;;;5.18;1.90;;;;;;;29.15;39.82;99719.81;10324693;28;20046;-66
2023/07/11 11:14:46;;;;;;;3.25;1.98;;;;;;;28.86;39.21;99696.31;10271625;28;20058;-65
2023/07/11 11:20:01;;;;;;;4.38;1.60;;;;;;;28.73;39.76;99710.81;10331488;28;20038;-66
2023/07/11 11:25:17;;;;;;;2.97;1.67;;;;;;;28.86;40.34;99696.31;10367993;28;20045;-65
2023/07/11 11:30:41;;;;;;;6.80;1.98;;;;;;;28.73;41.47;99699.88;10371933;28;20144;-67
2023/07/11 11:35:50;;;;;;;4.50;1.80;;;;;;;28.71;41.13;99702.09;10371975;28;20455;-66
2023/07/11 11:40:57;;;;;;;4.57;1.75;;;;;;;28.62;40.86;99705.53;10371858;28;20049;-66
2023/07/11 11:46:03;;;;;;;4.15;1.70;;;;;;;28.28;39.71;99645.00;10371119;28;20556;-66
2023/07/11 11:51:09;;;;;;;5.28;1.90;;;;;;;28.72;40.70;99676.38;10368857;28;20042;-66
2023/07/11 11:56:15;;;;;;;10.18;2.13;;;;;;;29.23;39.47;99659.72;10369629;28;20132;-67
2023/07/11 12:01:56;;;;;;;4.35;1.98;;;;;;;29.49;39.28;99646.22;10371350;28;20077;-65
2023/07/11 12:07:08;;;;;;;2.83;1.63;;;;;;;29.98;39.16;99701.97;10370532;28;20038;-66
2023/07/11 12:12:30;;;;;;;4.45;1.88;;;;;;;29.38;39.20;99649.50;10370178;28;20114;-66
2023/07/11 12:17:31;;;;;;;4.20;2.00;;;;;;;29.62;38.85;99702.06;10379991;28;20540;-65
2023/07/11 12:22:34;;;;;;;3.40;1.70;;;;;;;29.56;37.60;99643.06;10369182;28;20073;-65
2023/07/11 12:27:35;;;;;;;5.45;1.40;;;;;;;29.96;35.97;99701.47;10370670;28;20048;-65
2023/07/11 12:32:40;;;;;;;5.03;1.70;;;;;;;30.13;35.29;99713.69;10368968;28;20410;-64
2023/07/11 12:38:02;;;;;;;5.25;1.58;;;;;;;29.44;36.60;99692.88;10369241;28;20034;-65
2023/07/11 12:43:30;;;;;;;125.75;8.55;;;;;;;28.66;39.98;99744.81;10369830;28;20038;-65
2023/07/11 12:48:36;;;;;;;55.88;4.80;;;;;;;28.15;41.34;99764.00;10364973;28;20285;-68
2023/07/11 12:53:37;;;;;;;32.00;3.70;;;;;;;28.01;42.20;99765.91;10356376;28;20050;-65
2023/07/11 12:58:40;;;;;;;23.73;2.67;;;;;;;27.84;42.93;99788.25;10366794;28;20179;-65
2023/07/11 13:03:42;;;;;;;9.43;1.55;;;;;;;27.63;43.51;99802.19;10368446;28;20056;-64
2023/07/11 13:08:43;;;;;;;9.07;1.42;;;;;;;27.30;43.97;99782.16;10369480;28;20497;-63
2023/07/11 13:13:43;;;;;;;7.93;1.58;;;;;;;27.19;44.81;99791.56;10367300;28;20057;-64
2023/07/11 13:18:47;;;;;;;7.25;1.60;;;;;;;27.21;45.82;99800.28;10368664;28;20045;-66
2023/07/11 13:23:48;;;;;;;9.05;1.58;;;;;;;27.20;45.92;99790.50;10368774;28;20098;-64
2023/07/11 13:29:06;;;;;;;10.38;1.52;;;;;;;27.31;45.23;99805.59;10367938;28;20171;-65
2023/07/11 13:34:14;;;;;;;6.07;1.77;;;;;;;27.30;44.79;99812.97;10366597;28;20049;-65
2023/07/11 13:39:27;;;;;;;4.85;1.50;;;;;;;27.30;43.56;99801.25;10368486;28;20038;-65
2023/07/11 13:44:32;;;;;;;5.78;1.17;;;;;;;27.29;43.73;99826.91;10367550;28;20030;-65
2023/07/11 13:49:37;;;;;;;3.78;1.40;;;;;;;27.27;44.26;99834.56;10367733;28;20038;-65
2023/07/11 13:54:40;;;;;;;2.38;1.20;;;;;;;27.26;43.67;99825.59;10366317;28;20046;-66
2023/07/11 13:59:41;;;;;;;5.35;1.55;;;;;;;27.27;43.82;99835.38;10366762;28;20095;-64
2023/07/11 14:04:41;;;;;;;2.60;1.10;;;;;;;27.21;44.51;99846.63;10367549;28;20038;-64
2023/07/11 14:09:42;;;;;;;6.75;1.55;;;;;;;27.40;44.25;99857.59;10367239;28;20137;-65
2023/07/11 14:14:43;;;;;;;8.63;1.63;;;;;;;27.35;44.27;99863.13;10366197;28;20100;-66
2023/07/11 14:19:44;;;;;;;5.32;1.20;;;;;;;27.26;43.46;99877.41;10366993;28;20042;-64
2023/07/11 14:24:45;;;;;;;4.75;1.38;;;;;;;26.72;43.62;99823.16;10366592;28;20046;-64
2023/07/11 14:29:46;;;;;;;6.85;1.23;;;;;;;26.93;43.76;99883.72;10366280;28;20058;-66
2023/07/11 14:34:46;;;;;;;2.35;1.30;;;;;;;26.96;42.98;99888.59;10365796;28;20532;-64
2023/07/11 14:39:48;;;;;;;5.53;1.50;;;;;;;27.17;41.60;99883.78;10365750;28;20065;-64
2023/07/11 14:44:49;;;;;;;2.20;1.20;;;;;;;27.44;40.58;99880.47;10366256;28;20077;-64
2023/07/11 14:49:51;;;;;;;2.80;1.30;;;;;;;27.32;39.86;99880.88;10365664;28;20073;-66
2023/07/11 14:54:52;;;;;;;2.45;1.23;;;;;;;27.44;39.61;99894.09;10369230;28;20052;-65
2023/07/11 14:59:52;;;;;;;3.83;1.30;;;;;;;27.05;39.67;99835.88;10372431;28;20057;-65
2023/07/11 15:04:53;;;;;;;3.90;1.40;;;;;;;27.41;39.82;99900.94;10372896;28;20129;-66
2023/07/11 15:09:54;;;;;;;3.67;1.30;;;;;;;27.33;39.84;99898.84;10371548;28;20136;-65
2023/07/11 15:14:55;;;;;;;2.78;1.10;;;;;;;27.14;39.68;99901.50;10373165;28;20081;-64
2023/07/11 15:19:55;;;;;;;4.10;1.50;;;;;;;27.08;39.71;99913.56;10371938;28;20045;-65
2023/07/11 15:24:56;;;;;;;5.72;1.42;;;;;;;26.95;39.78;99933.28;10371694;28;20067;-66
2023/07/11 15:29:57;;;;;;;2.17;1.25;;;;;;;26.47;40.47;99927.66;10369818;28;20042;-66
2023/07/11 15:34:58;;;;;;;5.50;1.45;;;;;;;26.04;40.97;99960.88;10370489;28;20501;-67
2023/07/11 15:39:59;;;;;;;3.03;1.48;;;;;;;25.67;41.94;99967.53;10369455;28;20079;-65
2023/07/11 15:45:03;;;;;;;6.13;1.40;;;;;;;25.09;42.46;99939.09;10368322;28;20045;-65
2023/07/11 15:50:13;;;;;;;11.30;1.92;;;;;;;25.03;43.92;99974.41;10371306;28;20038;-66
2023/07/11 15:55:16;;;;;;;5.45;1.50;;;;;;;24.48;44.63;99931.78;10369199;28;20034;-66
2023/07/11 16:00:20;;;;;;;3.08;1.40;;;;;;;24.72;45.44;100003.50;10371470;28;20545;-65
2023/07/11 16:05:23;;;;;;;3.95;1.50;;;;;;;24.12;46.45;99950.66;10370381;28;20038;-65
2023/07/11 16:10:27;;;;;;;7.35;1.90;;;;;;;24.37;47.21;100031.34;10370864;28;20535;-66
2023/07/11 16:15:33;;;;;;;2.67;1.40;;;;;;;24.14;46.60;100021.75;10370768;28;20042;-66
2023/07/11 16:20:35;;;;;;;2.55;1.20;;;;;;;23.55;46.05;99965.06;10370608;28;20033;-65
2023/07/11 16:25:36;;;;;;;4.43;2.10;;;;;;;23.56;46.48;99981.06;10370543;28;20042;-68
2023/07/11 16:30:37;;;;;;;2.58;1.20;;;;;;;23.76;46.92;100048.19;10370107;28;20441;-64
2023/07/11 16:35:38;;;;;;;13.18;1.27;;;;;;;23.28;46.69;99997.69;10366427;28;20162;-64
2023/07/11 16:40:38;;;;;;;5.97;1.20;;;;;;;23.46;47.48;100065.03;10366289;28;20042;-66
2023/07/11 16:45:39;;;;;;;4.00;1.20;;;;;;;23.33;47.23;100089.84;10369085;28;20037;-64
2023/07/11 16:50:40;;;;;;;2.33;0.90;;;;;;;23.15;47.97;100097.28;10368973;28;20042;-63
2023/07/11 16:55:41;;;;;;;9.65;1.30;;;;;;;22.98;48.47;100102.03;10368881;28;20054;-65
2023/07/11 17:00:42;;;;;;;2.15;0.82;;;;;;;22.41;48.39;100065.38;10367906;28;20042;-64
2023/07/11 17:05:44;;;;;;;4.65;1.20;;;;;;;22.22;48.42;100082.97;10366198;28;20532;-64
2023/07/11 17:10:51;;;;;;;4.22;1.02;;;;;;;22.32;49.33;100148.06;10363872;28;20041;-64
2023/07/11 17:15:55;;;;;;;3.08;0.93;;;;;;;21.99;49.52;100127.28;10363225;28;20405;-65
2023/07/11 17:20:56;;;;;;;1.85;0.85;;;;;;;21.97;49.68;100159.97;10365065;28;20046;-66
2023/07/11 17:25:59;;;;;;;2.72;0.90;;;;;;;21.85;50.21;100149.25;10361281;28;20091;-68
2023/07/11 17:31:00;;;;;;;2.45;1.30;;;;;;;21.26;50.94;100080.44;10361673;28;20154;-67
2023/07/11 17:36:01;;;;;;;2.38;1.30;;;;;;;21.67;51.12;100160.31;10366295;28;20558;-65
2023/07/11 17:41:01;;;;;;;3.65;2.08;;;;;;;21.52;51.26;100165.47;10364105;28;20037;-64
2023/07/11 17:46:08;;;;;;;6.90;2.22;;;;;;;21.49;51.18;100179.50;10363824;28;20451;-67
2023/07/11 17:51:11;;;;;;;4.00;1.67;;;;;;;21.38;51.69;100182.00;10364183;28;20409;-64
2023/07/11 17:56:13;;;;;;;2.70;1.45;;;;;;;21.40;51.03;100195.28;10366202;28;20582;-66
2023/07/11 18:01:20;;;;;;;2.15;1.23;;;;;;;21.32;52.39;100182.13;10360982;28;20052;-65
2023/07/11 18:06:23;;;;;;;2.33;1.13;;;;;;;21.30;51.42;100176.97;10365269;28;20054;-66
2023/07/11 18:11:24;;;;;;;1.80;0.90;;;;;;;21.25;51.33;100193.09;10365713;28;20383;-64
2023/07/11 18:16:28;;;;;;;2.45;1.30;;;;;;;21.14;52.57;100199.34;10365517;28;20041;-65
2023/07/11 18:21:30;;;;;;;1.77;0.98;;;;;;;21.09;52.53;100210.03;10365864;28;20141;-65
2023/07/11 18:26:31;;;;;;;1.73;0.93;;;;;;;20.77;52.92;100186.22;10367016;28;20050;-65
2023/07/11 18:31:32;;;;;;;8.15;2.22;;;;;;;21.01;53.36;100221.25;10364489;28;20401;-73
2023/07/11 18:36:33;;;;;;;6.55;2.47;;;;;;;20.92;53.79;100232.41;10363082;28;20129;-74
2023/07/11 18:41:33;;;;;;;3.83;1.98;;;;;;;20.86;53.79;100217.19;10365630;28;20042;-72
2023/07/11 18:46:34;;;;;;;3.70;1.50;;;;;;;20.05;54.52;100087.56;10366408;28;20041;-72
2023/07/11 18:51:35;;;;;;;2.72;1.60;;;;;;;20.63;54.72;100182.94;10365799;28;20050;-73
2023/07/11 18:56:36;;;;;;;3.72;1.88;;;;;;;20.87;55.46;100223.38;10365952;28;20037;-72
2023/07/11 19:01:37;;;;;;;6.97;2.92;;;;;;;20.30;56.26;100154.69;10365352;28;20405;-72
2023/07/11 19:06:38;;;;;;;4.32;2.05;;;;;;;20.82;56.72;100245.72;10365201;28;20048;-72
2023/07/11 19:11:39;;;;;;;2.65;1.27;;;;;;;20.81;57.36;100252.16;10365582;28;20034;-73
2023/07/11 19:16:40;;;;;;;5.35;1.50;;;;;;;20.81;57.98;100259.44;10365445;28;20049;-72
2023/07/11 19:21:41;;;;;;;2.70;1.30;;;;;;;20.30;58.66;100180.88;10365426;28;20804;-71
2023/07/11 19:26:43;;;;;;;10.75;1.38;;;;;;;20.75;58.93;100259.31;10363636;28;20129;-71
2023/07/11 19:31:43;;;;;;;6.38;1.80;;;;;;;20.66;59.23;100257.22;10363576;28;20073;-72
2023/07/11 19:36:44;;;;;;;7.00;1.60;;;;;;;20.57;59.61;100261.34;10363322;28;20038;-72
2023/07/11 19:41:45;;;;;;;5.35;1.55;;;;;;;20.30;60.53;100249.13;10368792;28;20044;-72
2023/07/11 19:46:46;;;;;;;3.10;1.42;;;;;;;20.34;60.47;100276.47;10371175;28;20120;-71
2023/07/11 19:51:46;;;;;;;3.33;1.80;;;;;;;20.00;61.66;100234.91;10369743;28;20045;-72
2023/07/11 19:56:47;;;;;;;3.22;1.40;;;;;;;19.90;62.65;100257.06;10370776;28;20099;-71
2023/07/11 20:01:48;;;;;;;7.35;1.40;;;;;;;19.42;62.47;100204.06;10371355;28;20037;-72
2023/07/11 20:06:49;;;;;;;2.38;1.40;;;;;;;19.75;63.28;100256.69;10370385;28;20379;-71
2023/07/11 20:11:49;;;;;;;4.55;1.67;;;;;;;19.70;63.64;100265.44;10371181;28;20056;-71
2023/07/11 20:16:50;;;;;;;10.48;1.63;;;;;;;19.58;64.85;100254.59;10370749;28;20137;-72
2023/07/11 20:21:51;;;;;;;7.50;1.85;;;;;;;19.38;66.37;100259.44;10370533;28;20049;-71
2023/07/11 20:26:52;;;;;;;8.73;1.48;;;;;;;19.26;67.03;100272.84;10369812;28;20030;-71
2023/07/11 20:31:53;;;;;;;7.90;1.63;;;;;;;18.62;67.19;100180.84;10370043;28;20061;-72
2023/07/11 20:36:53;;;;;;;3.95;1.73;;;;;;;19.09;67.65;100275.34;10368503;28;20046;-71
2023/07/11 20:41:54;;;;;;;6.35;1.73;;;;;;;19.03;67.15;100265.47;10370424;28;20178;-71
2023/07/11 20:46:55;;;;;;;3.70;1.50;;;;;;;19.13;67.82;100273.84;10369812;28;20041;-71
2023/07/11 20:51:56;;;;;;;3.83;1.52;;;;;;;19.18;67.50;100278.56;10368767;28;20034;-71
2023/07/11 20:56:57;;;;;;;3.13;1.60;;;;;;;18.88;67.34;100254.28;10369347;28;20044;-71
2023/07/11 21:01:58;;;;;;;3.35;1.60;;;;;;;19.02;67.59;100293.44;10368887;28;20042;-72
2023/07/11 21:06:58;;;;;;;3.83;1.52;;;;;;;18.93;67.81;100289.41;10367641;28;20151;-71
2023/07/11 21:11:59;;;;;;;3.13;1.52;;;;;;;18.85;67.94;100303.16;10369014;28;20048;-71
2023/07/11 21:17:00;;;;;;;5.95;1.90;;;;;;;18.78;68.39;100313.16;10369364;28;20129;-71
2023/07/11 21:22:01;;;;;;;7.65;1.88;;;;;;;18.72;68.69;100304.06;10368515;28;20464;-71
2023/07/11 21:27:01;;;;;;;2.70;1.70;;;;;;;18.64;69.08;100299.00;10366936;28;20114;-71
2023/07/11 21:32:13;;;;;;;4.32;1.40;;;;;;;18.56;70.81;100291.22;10368608;28;20069;-71
2023/07/11 21:37:14;;;;;;;4.97;1.88;;;;;;;18.27;70.82;100263.94;10367892;28;20042;-71
2023/07/11 21:42:15;;;;;;;2.92;1.77;;;;;;;17.84;71.54;100213.66;10368428;28;20060;-71
2023/07/11 21:47:16;;;;;;;3.72;1.95;;;;;;;18.22;72.26;100279.94;10366800;28;20520;-72
2023/07/11 21:52:16;;;;;;;3.40;1.88;;;;;;;17.68;72.16;100201.56;10367298;28;20045;-71
2023/07/11 21:57:17;;;;;;;3.92;1.90;;;;;;;18.09;72.97;100266.59;10367704;28;20497;-72
2023/07/11 22:02:18;;;;;;;13.38;2.55;;;;;;;18.03;73.68;100279.84;10367363;28;20434;-72
2023/07/11 22:07:19;;;;;;;6.35;1.88;;;;;;;17.49;73.78;100203.31;10367259;28;20128;-71
2023/07/11 22:12:20;;;;;;;3.50;2.00;;;;;;;17.75;74.70;100274.88;10367573;28;20045;-71
2023/07/11 22:17:20;;;;;;;10.93;2.30;;;;;;;17.50;75.70;100269.44;10367731;28;20489;-72
2023/07/11 22:22:21;;;;;;;3.47;1.90;;;;;;;17.44;76.43;100290.94;10365302;28;20046;-71
2023/07/11 22:27:23;;;;;;;2.55;1.70;;;;;;;16.76;76.40;100198.34;10366772;28;20052;-71
2023/07/11 22:32:25;;;;;;;4.32;2.05;;;;;;;17.39;76.96;100294.28;10366693;28;20053;-71
2023/07/11 22:37:26;;;;;;;3.30;1.80;;;;;;;17.42;76.49;100298.41;10365860;28;20076;-71
2023/07/11 22:42:28;;;;;;;3.78;2.03;;;;;;;17.45;76.38;100284.56;10365691;28;20402;-71
2023/07/11 22:47:29;;;;;;;3.42;2.17;;;;;;;17.47;76.77;100295.88;10365096;28;20042;-71
2023/07/11 22:52:30;;;;;;;3.05;2.03;;;;;;;17.48;76.96;100302.91;10366059;28;20095;-71
2023/07/11 22:57:31;;;;;;;3.42;2.20;;;;;;;17.43;77.08;100303.53;10365392;28;20398;-71
2023/07/11 23:02:31;;;;;;;9.32;2.65;;;;;;;17.32;77.41;100290.81;10365470;28;20050;-71
2023/07/11 23:07:32;;;;;;;7.43;2.05;;;;;;;17.00;77.47;100250.47;10366189;28;20092;-71
2023/07/11 23:12:33;;;;;;;6.95;2.15;;;;;;;16.97;78.01;100284.97;10364991;28;20466;-71
2023/07/11 23:17:35;;;;;;;3.60;2.40;;;;;;;16.95;78.64;100306.63;10371569;28;20042;-71
2023/07/11 23:22:36;;;;;;;5.60;2.38;;;;;;;16.04;79.47;100183.22;10370832;28;20042;-71